AirNav   Everest Fuels
 
 690 users online  

79KS Greenwood County Hospital Heliport
Eureka, Kansas, USA


FAA INFORMATION EFFECTIVE 08 SEPTEMBER 2022

Location

FAA Identifier: 79KS
Lat/Long: 37-50-10.3300N 096-17-42.9400W
37-50.172167N 096-17.715667W
37.8362028,-96.2952611
(estimated)
Elevation: 1137 ft. / 347 m (estimated)
From city: 1 mile NW of EUREKA, KS
Time zone: UTC -5 (UTC -6 during Standard Time)
Zip code: 67045

Heliport Operations

Heliport use: Private use. Permission required prior to landing
Activation date: 12/2020
Control tower: no
ARTCC: KANSAS CITY CENTER
FSS: WICHITA FLIGHT SERVICE STATION
Attendance: 
Segmented circle: no

Heliport Communications

WX AWOS-3PT at 13K (0.9 nm N): 120.975 (620-583-2760)

Nearby radio navigation aids

VOR radial/distance  VOR name  Freq  Var
EMPr187/28.3EMPORIA VORTAC112.8008E
CNUr286/35.6CHANUTE VOR/DME109.2005E

Heliport Services

Runway Information

Helipad H1

Dimensions: 20 x 26 ft. / 6 x 8 m
Surface: concrete
Latitude: 37-50.172167N
Longitude: 096-17.715667W
Elevation: 1137.0 ft.
Traffic pattern: leftleft

Heliport Ownership and Management from official FAA records

Ownership: Privately-owned
Owner: GREENWOOD COUNTY HOSPITAL
100 W 16TH ST
EUREKA, KS 67045
Phone 620-583-0562
OWNER EMAIL: SDICKERSON@GWCH.ORG
Manager: RANDY HARRIS
100 W 16TH ST
EUREKA, KS 67045
Phone 620-583-7451
MANGAGER EMAIL: RHARRIS@GWCH.ORG

Heliport Operational Statistics

Aircraft based on the field: 1
Helicopters: 1
    

Instrument Procedures

There are no published instrument procedures at 79KS.

Some nearby airports with instrument procedures:

13K - Lt. William M. Milliken Airport (1 nm N)
KEQA - El Dorado/Capt Jack Thomas Memorial Airport (25 nm W)
KEMP - Emporia Municipal Airport (30 nm N)
3AU - Augusta Municipal Airport (38 nm W)
KUKL - Coffey County Airport (39 nm NE)
 
Loc | Ops | Rwys | IFR | FBO | Links
Com | Nav | Svcs | Stats | Notes
Aerial photo
No photo
 
Airport distance calculator
Flying to Greenwood County Hospital Heliport? Find the distance to fly.

From to 79KS

Sunrise and sunset
Times for 26-Sep-2022
 Local
(UTC-5)
 Zulu
(UTC)
Morning civil twilight06:5111:51
Sunrise07:1712:17
Sunset19:1600:16
Evening civil twilight19:4200:42

Current date and time
Zulu (UTC)  26-Sep-2022 10:31:51
Local (UTC-5)  26-Sep-2022 05:31:51
 
METAR
K13K 261015Z AUTO 36007KT 10SM CLR 11/07 A3015 RMK AO2 T01070071
TAF
KCNU 
40nm E 
260544Z 2606/2706 VRB03KT P6SM SKC AMD NOT SKED= TAF KSLN 260544Z 2606/2706 VRB03KT P6SM SKC
KIAB 
48nm W 
260100Z 2601/2624 01008KT 9999 SKC QNH3007INS BECMG 2614/2615 32012G18KT 9999 SKC QNH3008INS TX26/2621Z TN14/2612Z LAST NO AMDS AFT 2601 NEXT 2610
NOTAMs
Click for the latest NOTAMs
NOTAMs are issued by the DoD/FAA and will open in a separate window not controlled by AirNav.

 

 
 

Would you like to see your business listed on this page?

 If your business provides an interesting product or service to pilots, flight crews, aircraft, or users of the Greenwood County Hospital Heliport, you should consider listing it here.  To start the listing process, click on the button below
 
Add a business
 

Other Pages about Greenwood County Hospital Heliport

Update a link
 
Copyright © AirNav, LLC. All rights reserved. Privacy Policy  Contact